| time (UTC) | temp C | wind direction | speed KPH | gust KPH | rain 1hr cm | rain 24hr cm | rain mn cm | humidity % | barometer mb |
| 20260507193005 | 16 | 209 | 0.0 | 0.0 | 0.00 | 0.00 | 0.00 | 80 | 1012.5 |
| 20260507192006 | 16 | 209 | 0.0 | 0.0 | 0.00 | 0.00 | 0.00 | 79 | 1012.5 |
| 20260507191006 | 16 | 207 | 0.0 | 3.2 | 0.00 | 0.00 | 0.00 | 78 | 1012.4 |
| 20260507190006 | 16 | 208 | 1.6 | 4.8 | 0.00 | 0.00 | 0.00 | 76 | 1012.4 |
| 20260507185005 | 17 | 229 | 1.6 | 8.0 | 0.00 | 0.00 | 0.00 | 75 | 1012.4 |
| 20260507184005 | 17 | 213 | 4.8 | 12.9 | 0.00 | 0.00 | 0.00 | 74 | 1012.4 |
| 20260507183007 | 17 | 196 | 3.2 | 11.3 | 0.00 | 0.00 | 0.00 | 73 | 1012.5 |
| 20260507182005 | 18 | 197 | 8.0 | 12.9 | 0.00 | 0.00 | 0.00 | 71 | 1012.2 |
| 20260507181005 | 18 | 208 | 4.8 | 12.9 | 0.00 | 0.00 | 0.00 | 70 | 1012.0 |
| 20260507180005 | 18 | 215 | 4.8 | 12.9 | 0.00 | 0.00 | 0.00 | 70 | 1012.0 |
| 20260507173005 | 19 | 184 | 12.9 | 22.5 | 0.00 | 0.00 | 0.00 | 68 | 1011.9 |
| 20260507172005 | 20 | 195 | 4.8 | 19.3 | 0.00 | 0.00 | 0.00 | 68 | 1011.9 |
| 20260507171005 | 20 | 196 | 9.7 | 22.5 | 0.00 | 0.00 | 0.00 | 67 | 1011.8 |
| 20260507170006 | 20 | 205 | 9.7 | 19.3 | 0.00 | 0.00 | 0.00 | 66 | 1011.8 |
| 20260507165005 | 20 | 209 | 4.8 | 12.9 | 0.00 | 0.00 | 0.00 | 61 | 1011.8 |
| 20260507164005 | 21 | 147 | 1.6 | 8.0 | 0.00 | 0.00 | 0.00 | 54 | 1011.5 |
| 20260507163005 | 21 | 145 | 3.2 | 11.3 | 0.00 | 0.00 | 0.00 | 54 | 1011.6 |
| 20260507162007 | 21 | 155 | 4.8 | 11.3 | 0.00 | 0.00 | 0.00 | 55 | 1011.7 |
| 20260507161005 | 20 | 142 | 1.6 | 9.7 | 0.00 | 0.00 | 0.00 | 57 | 1011.5 |
| 20260507160005 | 21 | 164 | 4.8 | 9.7 | 0.00 | 0.00 | 0.00 | 56 | 1011.5 |
| 20260507155005 | 21 | 161 | 3.2 | 9.7 | 0.00 | 0.00 | 0.00 | 56 | 1011.5 |
| 20260507154009 | 21 | 335 | 1.6 | 3.2 | 0.00 | 0.00 | 0.00 | 53 | 1011.5 |
| 20260507153005 | 21 | 335 | 1.6 | 4.8 | 0.00 | 0.00 | 0.00 | 52 | 1011.6 |
| 20260507152005 | 21 | 305 | 1.6 | 3.2 | 0.00 | 0.00 | 0.00 | 53 | 1011.6 |
| 20260507151005 | 21 | 340 | 1.6 | 3.2 | 0.00 | 0.00 | 0.00 | 55 | 1011.7 |
| 20260507150006 | 21 | 355 | 1.6 | 3.2 | 0.00 | 0.00 | 0.00 | 53 | 1011.8 |
| 20260507145005 | 21 | 65 | 0.0 | 3.2 | 0.00 | 0.00 | 0.00 | 54 | 1011.9 |
| 20260507144005 | 21 | 65 | 1.6 | 4.8 | 0.00 | 0.00 | 0.00 | 53 | 1012.0 |
| 20260507143005 | 21 | 63 | 0.0 | 3.2 | 0.00 | 0.00 | 0.00 | 52 | 1012.0 |
| 20260507142006 | 21 | 59 | 1.6 | 8.0 | 0.00 | 0.00 | 0.00 | 55 | 1012.0 |
| 20260507141007 | 21 | 158 | 3.2 | 8.0 | 0.00 | 0.00 | 0.00 | 54 | 1012.2 |
| 20260507140006 | 21 | 137 | 3.2 | 4.8 | 0.00 | 0.00 | 0.00 | 54 | 1012.2 |
| 20260507135005 | 21 | 124 | 1.6 | 9.7 | 0.00 | 0.00 | 0.00 | 54 | 1012.3 |
| 20260507134007 | 21 | 88 | 4.8 | 16.1 | 0.00 | 0.00 | 0.00 | 53 | 1012.2 |
| 20260507133005 | 21 | 169 | 4.8 | 12.9 | 0.00 | 0.00 | 0.00 | 52 | 1012.3 |
| 20260507132005 | 21 | 117 | 8.0 | 11.3 | 0.00 | 0.00 | 0.00 | 53 | 1012.4 |
| 20260507131005 | 21 | 136 | 3.2 | 8.0 | 0.00 | 0.00 | 0.00 | 51 | 1012.5 |
| 20260507130005 | 21 | 157 | 4.8 | 9.7 | 0.00 | 0.00 | 0.00 | 53 | 1012.5 |
| 20260507125005 | 21 | 234 | 3.2 | 9.7 | 0.00 | 0.00 | 0.00 | 53 | 1012.6 |
| 20260507124005 | 21 | 224 | 3.2 | 8.0 | 0.00 | 0.00 | 0.00 | 56 | 1012.6 |
| 20260507123005 | 20 | 38 | 0.0 | 11.3 | 0.00 | 0.00 | 0.00 | 56 | 1012.7 |
| 20260507115005 | 21 | 169 | 3.2 | 9.7 | 0.00 | 0.03 | 0.00 | 55 | 1012.9 |
| 20260507113006 | 20 | 69 | 4.8 | 16.1 | 0.00 | 0.03 | 0.00 | 58 | 1013.2 |
| 20260507112005 | 20 | 138 | 6.4 | 11.3 | 0.00 | 0.03 | 0.00 | 57 | 1013.2 |
| 20260507111005 | 20 | 63 | 4.8 | 14.5 | 0.00 | 0.03 | 0.00 | 58 | 1013.3 |
| 20260507110005 | 20 | 148 | 4.8 | 14.5 | 0.00 | 0.03 | 0.00 | 58 | 1013.4 |
| 20260507105007 | 20 | 113 | 3.2 | 9.7 | 0.00 | 0.03 | 0.00 | 59 | 1013.6 |
| 20260507104005 | 20 | 266 | 3.2 | 12.9 | 0.00 | 0.03 | 0.00 | 60 | 1013.7 |
| 20260507103005 | 19 | 24 | 4.8 | 12.9 | 0.00 | 0.03 | 0.00 | 62 | 1013.9 |
| 20260507101007 | 19 | 47 | 3.2 | 11.3 | 0.00 | 0.03 | 0.00 | 63 | 1013.9 |
| 20260507100005 | 18 | 52 | 4.8 | 12.9 | 0.00 | 0.03 | 0.00 | 64 | 1013.8 |
| 20260507095005 | 18 | 313 | 3.2 | 12.9 | 0.00 | 0.03 | 0.00 | 67 | 1013.9 |
| 20260507094005 | 18 | 73 | 3.2 | 11.3 | 0.00 | 0.03 | 0.00 | 68 | 1013.9 |
| 20260507093008 | 18 | 65 | 8.0 | 12.9 | 0.00 | 0.03 | 0.00 | 68 | 1014.0 |
| 20260507092005 | 17 | 148 | 3.2 | 8.0 | 0.00 | 0.03 | 0.00 | 70 | 1014.0 |
| 20260507091005 | 17 | 347 | 4.8 | 16.1 | 0.00 | 0.03 | 0.00 | 70 | 1014.0 |
| 20260507090005 | 17 | 79 | 4.8 | 14.5 | 0.00 | 0.03 | 0.00 | 71 | 1013.9 |
| 20260507085005 | 17 | 59 | 8.0 | 14.5 | 0.00 | 0.03 | 0.00 | 71 | 1013.9 |
| 20260507084004 | 16 | 29 | 4.8 | 11.3 | 0.00 | 0.03 | 0.00 | 72 | 1013.9 |
| 20260507083005 | 16 | 359 | 8.0 | 16.1 | 0.00 | 0.03 | 0.00 | 74 | 1013.8 |
| 20260507082005 | 16 | 30 | 4.8 | 16.1 | 0.00 | 0.03 | 0.00 | 75 | 1013.8 |
| 20260507081005 | 15 | 38 | 9.7 | 19.3 | 0.00 | 0.03 | 0.00 | 76 | 1013.8 |
| 20260507080005 | 15 | 354 | 8.0 | 19.3 | 0.00 | 0.03 | 0.00 | 77 | 1013.8 |
| 20260507074004 | 15 | 13 | 9.7 | 16.1 | 0.00 | 0.03 | 0.00 | 77 | 1013.8 |
| 20260507073005 | 15 | 356 | 9.7 | 16.1 | 0.00 | 0.03 | 0.00 | 78 | 1013.8 |
| 20260507070009 | 13 | 23 | 9.7 | 14.5 | 0.00 | 0.03 | 0.00 | 83 | 1013.9 |
| 20260507065005 | 13 | 35 | 6.4 | 14.5 | 0.00 | 0.03 | 0.00 | 84 | 1013.8 |
| 20260507063005 | 12 | 24 | 6.4 | 12.9 | 0.00 | 0.03 | 0.00 | 87 | 1013.9 |
| 20260507062004 | 12 | 23 | 4.8 | 11.3 | 0.00 | 0.03 | 0.00 | 91 | 1013.8 |
| 20260507061004 | 11 | 134 | 0.0 | 1.6 | 0.00 | 0.03 | 0.00 | 92 | 1013.7 |
| 20260507055005 | 10 | 155 | 1.6 | 4.8 | 0.00 | 0.03 | 0.00 | 93 | 1013.7 |
| 20260507054004 | 10 | 131 | 3.2 | 4.8 | 0.00 | 0.03 | 0.00 | 93 | 1013.6 |
| 20260507052006 | 8 | 329 | 1.6 | 4.8 | 0.00 | 0.03 | 0.00 | 94 | 1013.4 |
| 20260507051004 | 8 | 151 | 0.0 | 3.2 | 0.00 | 0.03 | 0.00 | 94 | 1013.4 |
| 20260507050005 | 8 | 151 | 1.6 | 3.2 | 0.00 | 0.03 | 0.00 | 93 | 1013.2 |
| 20260507045004 | 8 | 151 | 1.6 | 4.8 | 0.00 | 0.03 | 0.00 | 92 | 1013.0 |
| 20260507044007 | 8 | 311 | 0.0 | 0.0 | 0.00 | 0.03 | 0.00 | 93 | 1012.9 |
| 20260507043004 | 8 | 314 | 0.0 | 0.0 | 0.00 | 0.03 | 0.00 | 92 | 1012.9 |
| 20260507042004 | 8 | 322 | 0.0 | 0.0 | 0.00 | 0.03 | 0.00 | 92 | 1012.8 |
| 20260507041005 | 8 | 294 | 0.0 | 3.2 | 0.00 | 0.03 | 0.00 | 92 | 1012.9 |
| 20260507035006 | 8 | 307 | 1.6 | 4.8 | 0.00 | 0.03 | 0.00 | 92 | 1012.8 |
| 20260507034006 | 8 | 306 | 1.6 | 4.8 | 0.00 | 0.03 | 0.00 | 92 | 1012.8 |
| 20260507033006 | 8 | 340 | 1.6 | 3.2 | 0.00 | 0.03 | 0.00 | 92 | 1012.8 |
| 20260507032006 | 8 | 355 | 0.0 | 3.2 | 0.00 | 0.03 | 0.00 | 91 | 1012.8 |
| 20260507031006 | 8 | 43 | 0.0 | 0.0 | 0.00 | 0.03 | 0.00 | 91 | 1012.8 |
| 20260507030006 | 8 | 43 | 0.0 | 0.0 | 0.00 | 0.03 | 0.00 | 91 | 1012.8 |
| 20260507024006 | 9 | 43 | 0.0 | 1.6 | 0.00 | 0.03 | 0.00 | 90 | 1012.8 |
| 20260507023006 | 9 | 43 | 1.6 | 3.2 | 0.00 | 0.03 | 0.00 | 90 | 1012.6 |
| 20260507022006 | 9 | 284 | 1.6 | 4.8 | 0.00 | 0.03 | 0.00 | 90 | 1012.6 |
| 20260507021006 | 9 | 318 | 3.2 | 4.8 | 0.00 | 0.03 | 0.00 | 90 | 1012.7 |
| 20260507020006 | 9 | 348 | 1.6 | 3.2 | 0.00 | 0.03 | 0.00 | 90 | 1012.7 |
| 20260507015004 | 10 | 318 | 1.6 | 4.8 | 0.00 | 0.03 | 0.00 | 90 | 1012.7 |
| 20260507013006 | 10 | 294 | 1.6 | 3.2 | 0.00 | 0.03 | 0.00 | 90 | 1012.7 |
| 20260507012006 | 10 | 235 | 0.0 | 1.6 | 0.00 | 0.03 | 0.00 | 90 | 1012.8 |
| 20260507010006 | 10 | 231 | 0.0 | 3.2 | 0.00 | 0.03 | 0.00 | 89 | 1012.8 |
| 20260507005006 | 10 | 275 | 0.0 | 1.6 | 0.00 | 0.03 | 0.00 | 89 | 1012.7 |
| 20260507004006 | 10 | 296 | 0.0 | 1.6 | 0.00 | 0.05 | 0.00 | 88 | 1012.7 |
| 20260507003007 | 10 | 276 | 0.0 | 4.8 | 0.00 | 0.05 | 0.00 | 88 | 1012.8 |
| 20260507002006 | 10 | 76 | 0.0 | 8.0 | 0.00 | 0.05 | 0.00 | 87 | 1012.8 |
| 20260507001006 | 11 | 140 | 0.0 | 1.6 | 0.00 | 0.05 | 0.00 | 87 | 1012.9 |
| 20260507000006 | 11 | 111 | 0.0 | 1.6 | 0.00 | 0.05 | 0.00 | 86 | 1012.8 |
| 20260506235004 | 11 | 54 | 0.0 | 4.8 | 0.00 | 0.05 | 0.00 | 85 | 1012.7 |
| 20260506234006 | 11 | 46 | 0.0 | 4.8 | 0.00 | 0.05 | 0.00 | 84 | 1012.6 |
| 20260506233006 | 11 | 293 | 0.0 | 0.0 | 0.00 | 0.05 | 0.00 | 83 | 1012.6 |
| 20260506232006 | 11 | 293 | 0.0 | 3.2 | 0.00 | 0.08 | 0.00 | 82 | 1012.5 |
| 20260506231005 | 12 | 324 | 0.0 | 3.2 | 0.00 | 0.13 | 0.00 | 81 | 1012.7 |
| 20260506230006 | 12 | 234 | 0.0 | 0.0 | 0.00 | 0.15 | 0.00 | 81 | 1012.7 |
| 20260506225006 | 12 | 237 | 0.0 | 0.0 | 0.00 | 0.15 | 0.00 | 79 | 1012.7 |
| 20260506224006 | 13 | 237 | 0.0 | 0.0 | 0.00 | 0.25 | 0.00 | 77 | 1012.7 |
| 20260506223005 | 13 | 237 | 0.0 | 4.8 | 0.00 | 0.33 | 0.00 | 76 | 1012.7 |
| 20260506222006 | 13 | 203 | 1.6 | 4.8 | 0.00 | 0.43 | 0.00 | 75 | 1012.7 |
| 20260506221006 | 13 | 230 | 0.0 | 1.6 | 0.00 | 0.48 | 0.00 | 75 | 1012.8 |
| 20260506214004 | 14 | 249 | 3.2 | 14.5 | 0.00 | 0.51 | 0.48 | 73 | 1012.6 |
| 20260506213004 | 14 | 245 | 1.6 | 3.2 | 0.00 | 0.53 | 0.48 | 73 | 1012.5 |
| 20260506212004 | 15 | 141 | 0.0 | 4.8 | 0.00 | 0.53 | 0.48 | 71 | 1012.5 |
| 20260506211004 | 15 | 126 | 3.2 | 9.7 | 0.00 | 0.53 | 0.48 | 70 | 1012.3 |
| 20260506210006 | 15 | 166 | 1.6 | 8.0 | 0.00 | 0.53 | 0.48 | 69 | 1012.3 |
| 20260506205006 | 15 | 180 | 4.8 | 8.0 | 0.00 | 0.53 | 0.48 | 69 | 1011.9 |
| 20260506204006 | 15 | 246 | 0.0 | 4.8 | 0.00 | 0.53 | 0.48 | 68 | 1011.9 |
| 20260506203006 | 15 | 223 | 1.6 | 8.0 | 0.00 | 0.53 | 0.48 | 68 | 1011.8 |
| 20260506202007 | 15 | 233 | 3.2 | 4.8 | 0.00 | 0.53 | 0.48 | 68 | 1011.6 |
| 20260506200006 | 16 | 225 | 3.2 | 8.0 | 0.00 | 0.53 | 0.48 | 69 | 1011.4 |
| 20260506195006 | 16 | 232 | 1.6 | 4.8 | 0.00 | 0.53 | 0.48 | 69 | 1011.4 |